This is the latest recevied weather packets stored in our database for station/object KO4LFZ. If no packets are shown the sender has not sent any weather packets the latest 10 day(s).
| Time | Temp. | Humidity | Pressure | Rain* | Wind** | Luminosity | Snow |
|---|---|---|---|---|---|---|---|
| 1777410507 | 24.44° C | 82% | 1011.6 hPa | 0 mm | - | 0 W/m² | - |
| 1777410203 | 24.44° C | 81% | 1011.8 hPa | 0 mm | - | 3 W/m² | - |
| 1777409898 | 25° C | 80% | 1011.4 hPa | 0 mm | - | 5 W/m² | - |
| 1777409594 | 25° C | 80% | 1011.4 hPa | 0 mm | - | 4 W/m² | - |
| 1777409289 | 25° C | 78% | 1011.5 hPa | 0 mm | - | 6 W/m² | - |
| 1777408985 | 25.56° C | 78% | 1011.5 hPa | 0 mm | - | 7 W/m² | - |
| 1777408682 | 25.56° C | 79% | 1011.2 hPa | 0 mm | - | 30 W/m² | - |
| 1777408377 | 25.56° C | 76% | 1011.5 hPa | 0 mm | - | 44 W/m² | - |
| 1777408076 | 25.56° C | 75% | 1011.7 hPa | 0 mm | - | 65 W/m² | - |
| 1777407773 | 25.56° C | 75% | 1012 hPa | 0 mm | - | 88 W/m² | - |
| 1777407193 | 25.56° C | 75% | 1012.4 hPa | 0 mm | - | 99 W/m² | - |
| 1777406889 | 25.56° C | 75% | 1012.4 hPa | 0 mm | - | 99 W/m² | - |
| 1777406584 | 25.56° C | 75% | 1012.5 hPa | 0 mm | - | 79 W/m² | - |
| 1777406280 | 26.11° C | 74% | 1012.6 hPa | 0 mm | - | 50 W/m² | - |
| 1777405979 | 26.11° C | 73% | 1012.6 hPa | 0 mm | - | 159 W/m² | - |
| 1777405675 | 26.11° C | 73% | 1012.6 hPa | 0 mm | - | 159 W/m² | - |
| 1777405373 | 26.11° C | 74% | 1012.4 hPa | 0 mm | - | 164 W/m² | - |
| 1777405068 | 26.11° C | 75% | 1012.9 hPa | 0 mm | - | 185 W/m² | - |
| 1777404763 | 26.11° C | 73% | 1012.7 hPa | 0 mm | - | 165 W/m² | - |
| 1777404460 | 26.67° C | 73% | 1013 hPa | 0 mm | - | 167 W/m² | - |
| 1777404156 | 26.67° C | 72% | 1013.3 hPa | 0 mm | - | 220 W/m² | - |
| 1777403852 | 26.67° C | 72% | 1013.2 hPa | 0 mm | - | 292 W/m² | - |
| 1777403547 | 27.22° C | 71% | 1013.2 hPa | 0 mm | - | 316 W/m² | - |
| 1777403247 | 27.78° C | 69% | 1013.5 hPa | 0 mm | - | 516 W/m² | - |
| 1777402947 | 26.67° C | 73% | 1013.5 hPa | 0 mm | - | 721 W/m² | - |
* Rain latest hour (hover to see other rain measurements)
** Current wind speed in m/s (hover to see current wind gust speed)